< < Back
Terminal Aerodrome Forecast


Current Version              Previous Versions:   1  2  3  4  5  6  7  8  9  

Terminal Aerodrome Forecast

091
FTUS44 KOHX 170700 AAA
TAFBNA
TAF AMD
KBNA 170725Z 1707/1806 33007KT P6SM SCT006 OVC015
      TEMPO 1707/1710 5SM -DZ BR BKN006 OVC015
     FM171200 33005KT P6SM OVC025
     FM171800 34005KT P6SM SCT030 BKN250=



Latest METAR

621
SAUS70 KWBC 172300
MTRBNA
METAR KBNA 172253Z 00000KT 10SM OVC200 03/M02 A3026 RMK AO2 SLP249
T00331017


USA.gov is the U.S. government's official web portal to all federal, state and local government web resources and services.